sensor_id;sensor_type;location;lat;lon;timestamp;pressure;altitude;pressure_sealevel;temperature;humidity
82293;BME280;71892;14.836;105.234;2023-10-31T00:04:40;99726.25;;;27.45;nan
82293;BME280;71892;14.836;105.234;2023-10-31T00:07:06;99731.28;;;27.85;nan
82293;BME280;71892;14.836;105.234;2023-10-31T00:09:32;99729.22;;;28.22;nan
82293;BME280;71892;14.836;105.234;2023-10-31T00:11:59;99684.66;;;28.35;nan
82293;BME280;71892;14.836;105.234;2023-10-31T00:14:25;99741.81;;;28.24;nan
82293;BME280;71892;14.836;105.234;2023-10-31T00:16:52;99741.28;;;28.33;nan
82293;BME280;71892;14.836;105.234;2023-10-31T00:19:18;99746.88;;;28.62;nan
82293;BME280;71892;14.836;105.234;2023-10-31T00:21:45;99743.09;;;28.64;nan
82293;BME280;71892;14.836;105.234;2023-10-31T00:24:11;99740.41;;;28.94;nan
82293;BME280;71892;14.836;105.234;2023-10-31T00:26:38;99741.59;;;29.04;nan
82293;BME280;71892;14.836;105.234;2023-10-31T00:29:06;99739.81;;;29.03;nan
82293;BME280;71892;14.836;105.234;2023-10-31T00:31:32;99729.16;;;28.99;nan
82293;BME280;71892;14.836;105.234;2023-10-31T00:34:01;99746.59;;;29.26;nan
82293;BME280;71892;14.836;105.234;2023-10-31T00:36:28;99752.13;;;29.83;nan
82293;BME280;71892;14.836;105.234;2023-10-31T00:38:54;99746.97;;;30.47;nan
82293;BME280;71892;14.836;105.234;2023-10-31T00:41:20;99750.00;;;30.57;nan
82293;BME280;71892;14.836;105.234;2023-10-31T00:43:47;99759.41;;;30.53;nan
82293;BME280;71892;14.836;105.234;2023-10-31T00:46:13;99752.94;;;29.56;nan
82293;BME280;71892;14.836;105.234;2023-10-31T00:48:39;99764.50;;;29.90;nan
82293;BME280;71892;14.836;105.234;2023-10-31T00:51:06;99766.94;;;30.63;nan
82293;BME280;71892;14.836;105.234;2023-10-31T00:53:32;99758.31;;;30.82;nan
82293;BME280;71892;14.836;105.234;2023-10-31T00:55:58;99751.25;;;31.05;nan
82293;BME280;71892;14.836;105.234;2023-10-31T00:58:25;99762.06;;;31.21;nan
82293;BME280;71892;14.836;105.234;2023-10-31T01:00:51;99764.16;;;31.42;nan
82293;BME280;71892;14.836;105.234;2023-10-31T01:03:17;99768.44;;;31.21;nan
82293;BME280;71892;14.836;105.234;2023-10-31T01:05:44;99775.19;;;31.68;nan
82293;BME280;71892;14.836;105.234;2023-10-31T01:08:11;99773.84;;;31.99;nan
82293;BME280;71892;14.836;105.234;2023-10-31T01:10:37;99777.25;;;32.02;nan
82293;BME280;71892;14.836;105.234;2023-10-31T01:13:04;99778.94;;;31.79;nan
82293;BME280;71892;14.836;105.234;2023-10-31T01:15:30;99781.56;;;31.93;nan
82293;BME280;71892;14.836;105.234;2023-10-31T01:17:56;99791.72;;;31.28;nan
82293;BME280;71892;14.836;105.234;2023-10-31T01:20:23;99799.53;;;31.22;nan
82293;BME280;71892;14.836;105.234;2023-10-31T01:22:49;99809.88;;;31.43;nan
82293;BME280;71892;14.836;105.234;2023-10-31T01:25:16;99802.78;;;32.17;nan
82293;BME280;71892;14.836;105.234;2023-10-31T01:27:42;99808.94;;;32.08;nan
82293;BME280;71892;14.836;105.234;2023-10-31T01:30:09;99813.91;;;32.15;nan
82293;BME280;71892;14.836;105.234;2023-10-31T01:32:35;99806.81;;;32.73;nan
82293;BME280;71892;14.836;105.234;2023-10-31T01:35:02;99784.16;;;32.69;nan
82293;BME280;71892;14.836;105.234;2023-10-31T01:37:30;99807.88;;;32.83;nan
82293;BME280;71892;14.836;105.234;2023-10-31T01:39:56;99798.44;;;32.74;nan
82293;BME280;71892;14.836;105.234;2023-10-31T01:42:22;99806.97;;;33.19;nan
82293;BME280;71892;14.836;105.234;2023-10-31T01:44:51;99810.09;;;33.02;nan
82293;BME280;71892;14.836;105.234;2023-10-31T01:47:18;99816.66;;;33.12;nan
82293;BME280;71892;14.836;105.234;2023-10-31T01:49:44;99824.66;;;33.28;nan
82293;BME280;71892;14.836;105.234;2023-10-31T01:52:10;99832.44;;;33.10;nan
82293;BME280;71892;14.836;105.234;2023-10-31T01:54:37;99828.56;;;33.36;nan
82293;BME280;71892;14.836;105.234;2023-10-31T01:57:04;99829.19;;;33.29;nan
82293;BME280;71892;14.836;105.234;2023-10-31T01:59:31;99844.03;;;32.78;nan
82293;BME280;71892;14.836;105.234;2023-10-31T02:01:59;99837.59;;;33.38;nan
82293;BME280;71892;14.836;105.234;2023-10-31T02:04:26;99839.75;;;33.81;nan
82293;BME280;71892;14.836;105.234;2023-10-31T02:06:53;99846.66;;;33.40;nan
82293;BME280;71892;14.836;105.234;2023-10-31T02:09:20;99843.72;;;33.31;nan
82293;BME280;71892;14.836;105.234;2023-10-31T02:11:50;99849.81;;;33.23;nan
82293;BME280;71892;14.836;105.234;2023-10-31T02:14:17;99844.28;;;32.99;nan
82293;BME280;71892;14.836;105.234;2023-10-31T02:16:43;99839.41;;;33.15;nan
82293;BME280;71892;14.836;105.234;2023-10-31T02:19:10;99843.28;;;33.48;nan
82293;BME280;71892;14.836;105.234;2023-10-31T02:21:39;99844.81;;;33.04;nan
82293;BME280;71892;14.836;105.234;2023-10-31T02:24:06;99838.38;;;33.51;nan
82293;BME280;71892;14.836;105.234;2023-10-31T02:26:33;99833.03;;;33.61;nan
82293;BME280;71892;14.836;105.234;2023-10-31T02:29:01;99837.72;;;33.37;nan
82293;BME280;71892;14.836;105.234;2023-10-31T02:31:28;99842.94;;;33.63;nan
82293;BME280;71892;14.836;105.234;2023-10-31T02:33:55;99814.50;;;33.28;nan
82293;BME280;71892;14.836;105.234;2023-10-31T02:36:21;99813.91;;;33.36;nan
82293;BME280;71892;14.836;105.234;2023-10-31T02:38:49;99847.63;;;32.55;nan
82293;BME280;71892;14.836;105.234;2023-10-31T02:41:15;99857.03;;;32.15;nan
82293;BME280;71892;14.836;105.234;2023-10-31T02:43:42;99843.81;;;31.82;nan
82293;BME280;71892;14.836;105.234;2023-10-31T02:46:09;99849.09;;;31.98;nan
82293;BME280;71892;14.836;105.234;2023-10-31T02:48:37;99847.19;;;32.49;nan
82293;BME280;71892;14.836;105.234;2023-10-31T02:51:07;99837.63;;;32.42;nan
82293;BME280;71892;14.836;105.234;2023-10-31T02:53:34;99825.75;;;32.41;nan
82293;BME280;71892;14.836;105.234;2023-10-31T02:56:02;99832.66;;;32.47;nan
82293;BME280;71892;14.836;105.234;2023-10-31T02:58:28;99818.31;;;32.54;nan
82293;BME280;71892;14.836;105.234;2023-10-31T03:00:55;99815.47;;;32.56;nan
82293;BME280;71892;14.836;105.234;2023-10-31T03:03:21;99800.91;;;32.54;nan
82293;BME280;71892;14.836;105.234;2023-10-31T03:05:47;99798.16;;;32.54;nan
82293;BME280;71892;14.836;105.234;2023-10-31T03:08:14;99803.44;;;32.20;nan
82293;BME280;71892;14.836;105.234;2023-10-31T03:10:41;99812.28;;;32.49;nan
82293;BME280;71892;14.836;105.234;2023-10-31T03:13:08;99813.53;;;32.82;nan
82293;BME280;71892;14.836;105.234;2023-10-31T03:15:34;99824.91;;;32.28;nan
82293;BME280;71892;14.836;105.234;2023-10-31T03:18:00;99820.78;;;32.46;nan
82293;BME280;71892;14.836;105.234;2023-10-31T03:20:28;99820.16;;;32.30;nan
82293;BME280;71892;14.836;105.234;2023-10-31T03:22:54;99818.38;;;32.42;nan
82293;BME280;71892;14.836;105.234;2023-10-31T03:25:21;99803.75;;;32.28;nan
82293;BME280;71892;14.836;105.234;2023-10-31T03:27:47;99795.34;;;32.43;nan
82293;BME280;71892;14.836;105.234;2023-10-31T03:30:13;99795.13;;;32.46;nan
82293;BME280;71892;14.836;105.234;2023-10-31T03:32:40;99784.94;;;32.22;nan
82293;BME280;71892;14.836;105.234;2023-10-31T03:35:06;99781.94;;;32.38;nan
82293;BME280;71892;14.836;105.234;2023-10-31T03:37:33;99777.16;;;32.53;nan
82293;BME280;71892;14.836;105.234;2023-10-31T03:39:59;99774.88;;;32.34;nan
82293;BME280;71892;14.836;105.234;2023-10-31T03:42:25;99757.38;;;32.35;nan
82293;BME280;71892;14.836;105.234;2023-10-31T03:44:52;99766.50;;;32.48;nan
82293;BME280;71892;14.836;105.234;2023-10-31T03:47:18;99757.22;;;32.00;nan
82293;BME280;71892;14.836;105.234;2023-10-31T03:49:44;99758.69;;;31.93;nan
82293;BME280;71892;14.836;105.234;2023-10-31T03:52:11;99756.69;;;31.95;nan
82293;BME280;71892;14.836;105.234;2023-10-31T03:54:37;99746.59;;;32.68;nan
82293;BME280;71892;14.836;105.234;2023-10-31T03:57:04;99746.72;;;32.91;nan
82293;BME280;71892;14.836;105.234;2023-10-31T03:59:30;99751.00;;;32.58;nan
82293;BME280;71892;14.836;105.234;2023-10-31T04:01:56;99749.38;;;32.56;nan
82293;BME280;71892;14.836;105.234;2023-10-31T04:04:23;99747.22;;;32.96;nan
82293;BME280;71892;14.836;105.234;2023-10-31T04:06:49;99743.91;;;33.49;nan
82293;BME280;71892;14.836;105.234;2023-10-31T04:09:15;99735.91;;;32.88;nan
82293;BME280;71892;14.836;105.234;2023-10-31T04:11:42;99734.22;;;33.44;nan
82293;BME280;71892;14.836;105.234;2023-10-31T04:14:09;99747.28;;;33.53;nan
82293;BME280;71892;14.836;105.234;2023-10-31T04:16:39;99742.69;;;33.76;nan
82293;BME280;71892;14.836;105.234;2023-10-31T04:19:12;99735.66;;;34.05;nan
82293;BME280;71892;14.836;105.234;2023-10-31T04:21:41;99723.78;;;32.90;nan
82293;BME280;71892;14.836;105.234;2023-10-31T04:24:08;99730.53;;;31.77;nan
82293;BME280;71892;14.836;105.234;2023-10-31T04:26:34;99715.34;;;30.69;nan
82293;BME280;71892;14.836;105.234;2023-10-31T04:29:00;99714.59;;;31.31;nan
82293;BME280;71892;14.836;105.234;2023-10-31T04:31:27;99706.53;;;31.91;nan
82293;BME280;71892;14.836;105.234;2023-10-31T04:33:53;99694.63;;;32.64;nan
82293;BME280;71892;14.836;105.234;2023-10-31T04:36:19;99701.47;;;33.17;nan
82293;BME280;71892;14.836;105.234;2023-10-31T04:38:46;99692.84;;;33.33;nan
82293;BME280;71892;14.836;105.234;2023-10-31T04:41:12;99697.25;;;33.46;nan
82293;BME280;71892;14.836;105.234;2023-10-31T04:43:39;99690.44;;;33.17;nan
82293;BME280;71892;14.836;105.234;2023-10-31T04:46:07;99689.06;;;33.23;nan
82293;BME280;71892;14.836;105.234;2023-10-31T04:48:34;99686.91;;;33.15;nan
82293;BME280;71892;14.836;105.234;2023-10-31T04:51:00;99683.47;;;33.35;nan
82293;BME280;71892;14.836;105.234;2023-10-31T04:53:26;99679.25;;;32.96;nan
82293;BME280;71892;14.836;105.234;2023-10-31T04:55:53;99676.19;;;32.88;nan
82293;BME280;71892;14.836;105.234;2023-10-31T04:58:19;99680.28;;;32.83;nan
82293;BME280;71892;14.836;105.234;2023-10-31T05:00:46;99670.28;;;33.28;nan
82293;BME280;71892;14.836;105.234;2023-10-31T05:03:13;99672.19;;;33.38;nan
82293;BME280;71892;14.836;105.234;2023-10-31T05:05:39;99665.31;;;33.88;nan
82293;BME280;71892;14.836;105.234;2023-10-31T05:08:05;99640.50;;;33.88;nan
82293;BME280;71892;14.836;105.234;2023-10-31T05:10:32;99652.91;;;33.38;nan
82293;BME280;71892;14.836;105.234;2023-10-31T05:12:58;99658.34;;;32.70;nan
82293;BME280;71892;14.836;105.234;2023-10-31T05:15:26;99650.94;;;31.99;nan
82293;BME280;71892;14.836;105.234;2023-10-31T05:17:52;99610.84;;;32.55;nan
82293;BME280;71892;14.836;105.234;2023-10-31T05:20:19;99639.09;;;33.38;nan
82293;BME280;71892;14.836;105.234;2023-10-31T05:22:46;99622.69;;;33.92;nan
82293;BME280;71892;14.836;105.234;2023-10-31T05:25:12;99626.94;;;33.96;nan
82293;BME280;71892;14.836;105.234;2023-10-31T05:27:39;99617.66;;;33.86;nan
82293;BME280;71892;14.836;105.234;2023-10-31T05:30:06;99613.91;;;33.65;nan
82293;BME280;71892;14.836;105.234;2023-10-31T05:32:32;99609.56;;;32.72;nan
82293;BME280;71892;14.836;105.234;2023-10-31T05:34:59;99614.31;;;32.46;nan
82293;BME280;71892;14.836;105.234;2023-10-31T05:37:25;99614.31;;;33.16;nan
82293;BME280;71892;14.836;105.234;2023-10-31T05:39:51;99600.91;;;33.67;nan
82293;BME280;71892;14.836;105.234;2023-10-31T05:42:18;99602.13;;;33.52;nan
82293;BME280;71892;14.836;105.234;2023-10-31T05:44:46;99611.16;;;33.32;nan
82293;BME280;71892;14.836;105.234;2023-10-31T05:47:12;99594.13;;;33.49;nan
82293;BME280;71892;14.836;105.234;2023-10-31T05:49:39;99579.34;;;33.50;nan
82293;BME280;71892;14.836;105.234;2023-10-31T05:52:05;99580.50;;;32.79;nan
82293;BME280;71892;14.836;105.234;2023-10-31T05:54:32;99593.22;;;32.58;nan
82293;BME280;71892;14.836;105.234;2023-10-31T05:56:58;99581.06;;;32.25;nan
82293;BME280;71892;14.836;105.234;2023-10-31T05:59:24;99586.31;;;31.81;nan
82293;BME280;71892;14.836;105.234;2023-10-31T06:01:51;99585.84;;;31.63;nan
82293;BME280;71892;14.836;105.234;2023-10-31T06:04:17;99577.84;;;31.35;nan
82293;BME280;71892;14.836;105.234;2023-10-31T06:06:44;99575.44;;;31.30;nan
82293;BME280;71892;14.836;105.234;2023-10-31T06:09:10;99565.38;;;31.91;nan
82293;BME280;71892;14.836;105.234;2023-10-31T06:11:39;99558.28;;;32.47;nan
82293;BME280;71892;14.836;105.234;2023-10-31T06:14:05;99543.88;;;33.01;nan
82293;BME280;71892;14.836;105.234;2023-10-31T06:16:31;99549.75;;;33.52;nan
82293;BME280;71892;14.836;105.234;2023-10-31T06:18:58;99532.94;;;32.88;nan
82293;BME280;71892;14.836;105.234;2023-10-31T06:21:24;99536.88;;;32.51;nan
82293;BME280;71892;14.836;105.234;2023-10-31T06:23:50;99538.00;;;32.48;nan
82293;BME280;71892;14.836;105.234;2023-10-31T06:26:17;99533.63;;;32.57;nan
82293;BME280;71892;14.836;105.234;2023-10-31T06:28:43;99526.00;;;32.60;nan
82293;BME280;71892;14.836;105.234;2023-10-31T06:31:09;99520.09;;;32.54;nan
82293;BME280;71892;14.836;105.234;2023-10-31T06:33:36;99523.59;;;32.33;nan
82293;BME280;71892;14.836;105.234;2023-10-31T06:36:02;99511.53;;;32.23;nan
82293;BME280;71892;14.836;105.234;2023-10-31T06:38:29;99508.84;;;32.11;nan
82293;BME280;71892;14.836;105.234;2023-10-31T06:40:55;99507.22;;;32.43;nan
82293;BME280;71892;14.836;105.234;2023-10-31T06:43:22;99500.72;;;32.55;nan
82293;BME280;71892;14.836;105.234;2023-10-31T06:45:49;99505.22;;;32.56;nan
82293;BME280;71892;14.836;105.234;2023-10-31T06:48:15;99497.47;;;32.61;nan
82293;BME280;71892;14.836;105.234;2023-10-31T06:50:41;99488.59;;;32.58;nan
82293;BME280;71892;14.836;105.234;2023-10-31T06:53:08;99492.38;;;32.68;nan
82293;BME280;71892;14.836;105.234;2023-10-31T06:55:34;99483.59;;;33.07;nan
82293;BME280;71892;14.836;105.234;2023-10-31T06:58:00;99474.94;;;33.45;nan
82293;BME280;71892;14.836;105.234;2023-10-31T07:00:27;99476.44;;;33.49;nan
82293;BME280;71892;14.836;105.234;2023-10-31T07:02:54;99476.09;;;33.32;nan
82293;BME280;71892;14.836;105.234;2023-10-31T07:05:20;99463.78;;;33.47;nan
82293;BME280;71892;14.836;105.234;2023-10-31T07:07:47;99472.34;;;33.22;nan
82293;BME280;71892;14.836;105.234;2023-10-31T07:10:13;99481.34;;;33.12;nan
82293;BME280;71892;14.836;105.234;2023-10-31T07:12:40;99467.13;;;32.96;nan
82293;BME280;71892;14.836;105.234;2023-10-31T07:15:07;99467.88;;;32.87;nan
82293;BME280;71892;14.836;105.234;2023-10-31T07:17:33;99457.09;;;32.95;nan
82293;BME280;71892;14.836;105.234;2023-10-31T07:20:00;99458.84;;;33.18;nan
82293;BME280;71892;14.836;105.234;2023-10-31T07:22:26;99455.69;;;33.23;nan
82293;BME280;71892;14.836;105.234;2023-10-31T07:24:52;99452.06;;;33.23;nan
82293;BME280;71892;14.836;105.234;2023-10-31T07:27:19;99437.31;;;32.79;nan
82293;BME280;71892;14.836;105.234;2023-10-31T07:29:46;99419.53;;;32.72;nan
82293;BME280;71892;14.836;105.234;2023-10-31T07:32:12;99430.16;;;32.08;nan
82293;BME280;71892;14.836;105.234;2023-10-31T07:34:41;99422.03;;;31.72;nan
82293;BME280;71892;14.836;105.234;2023-10-31T07:37:08;99421.81;;;31.75;nan
82293;BME280;71892;14.836;105.234;2023-10-31T07:39:34;99415.03;;;32.03;nan
82293;BME280;71892;14.836;105.234;2023-10-31T07:42:00;99415.66;;;32.06;nan
82293;BME280;71892;14.836;105.234;2023-10-31T07:44:27;99409.09;;;32.31;nan
82293;BME280;71892;14.836;105.234;2023-10-31T07:46:54;99407.88;;;32.46;nan
82293;BME280;71892;14.836;105.234;2023-10-31T07:49:20;99385.09;;;32.55;nan
82293;BME280;71892;14.836;105.234;2023-10-31T07:51:48;99411.72;;;32.44;nan
82293;BME280;71892;14.836;105.234;2023-10-31T07:54:14;99398.81;;;32.11;nan
82293;BME280;71892;14.836;105.234;2023-10-31T07:56:42;99386.81;;;32.12;nan
82293;BME280;71892;14.836;105.234;2023-10-31T07:59:08;99388.31;;;32.16;nan
82293;BME280;71892;14.836;105.234;2023-10-31T08:01:35;99400.81;;;32.20;nan
82293;BME280;71892;14.836;105.234;2023-10-31T08:04:01;99392.53;;;32.09;nan
82293;BME280;71892;14.836;105.234;2023-10-31T08:06:28;99393.06;;;32.14;nan
82293;BME280;71892;14.836;105.234;2023-10-31T08:08:54;99401.19;;;32.15;nan
82293;BME280;71892;14.836;105.234;2023-10-31T08:11:20;99382.81;;;32.16;nan
82293;BME280;71892;14.836;105.234;2023-10-31T08:13:47;99402.09;;;32.27;nan
82293;BME280;71892;14.836;105.234;2023-10-31T08:16:22;99397.47;;;32.27;nan
82293;BME280;71892;14.836;105.234;2023-10-31T08:18:49;99399.34;;;32.27;nan
82293;BME280;71892;14.836;105.234;2023-10-31T08:21:15;99397.34;;;32.29;nan
82293;BME280;71892;14.836;105.234;2023-10-31T08:23:41;99394.69;;;32.16;nan
82293;BME280;71892;14.836;105.234;2023-10-31T08:26:10;99397.84;;;32.23;nan
82293;BME280;71892;14.836;105.234;2023-10-31T08:28:36;99405.47;;;32.42;nan
82293;BME280;71892;14.836;105.234;2023-10-31T08:31:03;99398.13;;;32.53;nan
82293;BME280;71892;14.836;105.234;2023-10-31T08:33:29;99399.97;;;32.30;nan
82293;BME280;71892;14.836;105.234;2023-10-31T08:35:56;99402.88;;;32.05;nan
82293;BME280;71892;14.836;105.234;2023-10-31T08:38:22;99404.50;;;31.97;nan
82293;BME280;71892;14.836;105.234;2023-10-31T08:40:48;99397.84;;;31.88;nan
82293;BME280;71892;14.836;105.234;2023-10-31T08:43:15;99393.09;;;31.79;nan
82293;BME280;71892;14.836;105.234;2023-10-31T08:45:41;99399.09;;;31.84;nan
82293;BME280;71892;14.836;105.234;2023-10-31T08:48:07;99381.13;;;32.02;nan
82293;BME280;71892;14.836;105.234;2023-10-31T08:50:34;99378.44;;;32.13;nan
82293;BME280;71892;14.836;105.234;2023-10-31T08:53:00;99380.66;;;32.08;nan
82293;BME280;71892;14.836;105.234;2023-10-31T08:55:26;99383.94;;;32.13;nan
82293;BME280;71892;14.836;105.234;2023-10-31T08:57:53;99380.06;;;32.16;nan
82293;BME280;71892;14.836;105.234;2023-10-31T09:00:19;99375.97;;;32.32;nan
82293;BME280;71892;14.836;105.234;2023-10-31T09:02:46;99401.09;;;32.39;nan
82293;BME280;71892;14.836;105.234;2023-10-31T09:05:13;99393.72;;;32.28;nan
82293;BME280;71892;14.836;105.234;2023-10-31T09:07:39;99391.50;;;32.10;nan
82293;BME280;71892;14.836;105.234;2023-10-31T09:10:06;99391.88;;;32.05;nan
82293;BME280;71892;14.836;105.234;2023-10-31T09:12:33;99397.00;;;31.99;nan
82293;BME280;71892;14.836;105.234;2023-10-31T09:14:59;99406.41;;;32.07;nan
82293;BME280;71892;14.836;105.234;2023-10-31T09:17:26;99397.25;;;31.96;nan
82293;BME280;71892;14.836;105.234;2023-10-31T09:19:52;99405.13;;;32.00;nan
82293;BME280;71892;14.836;105.234;2023-10-31T09:22:19;99410.47;;;31.90;nan
82293;BME280;71892;14.836;105.234;2023-10-31T09:24:46;99406.34;;;31.85;nan
82293;BME280;71892;14.836;105.234;2023-10-31T09:27:12;99417.19;;;31.75;nan
82293;BME280;71892;14.836;105.234;2023-10-31T09:29:38;99415.19;;;31.54;nan
82293;BME280;71892;14.836;105.234;2023-10-31T09:32:05;99427.34;;;31.38;nan
82293;BME280;71892;14.836;105.234;2023-10-31T09:34:32;99415.19;;;31.30;nan
82293;BME280;71892;14.836;105.234;2023-10-31T09:36:58;99423.38;;;31.19;nan
82293;BME280;71892;14.836;105.234;2023-10-31T09:39:24;99419.75;;;31.18;nan
82293;BME280;71892;14.836;105.234;2023-10-31T09:41:51;99412.00;;;31.12;nan
82293;BME280;71892;14.836;105.234;2023-10-31T09:44:17;99413.97;;;30.97;nan
82293;BME280;71892;14.836;105.234;2023-10-31T09:46:45;99413.25;;;30.83;nan
82293;BME280;71892;14.836;105.234;2023-10-31T09:49:11;99407.13;;;30.67;nan
82293;BME280;71892;14.836;105.234;2023-10-31T09:51:38;99382.00;;;30.60;nan
82293;BME280;71892;14.836;105.234;2023-10-31T09:54:06;99400.16;;;30.50;nan
82293;BME280;71892;14.836;105.234;2023-10-31T09:56:34;99409.75;;;30.43;nan
82293;BME280;71892;14.836;105.234;2023-10-31T09:59:01;99418.56;;;30.35;nan
82293;BME280;71892;14.836;105.234;2023-10-31T10:01:28;99411.41;;;30.33;nan
82293;BME280;71892;14.836;105.234;2023-10-31T10:03:56;99417.13;;;30.30;nan
82293;BME280;71892;14.836;105.234;2023-10-31T10:06:22;99421.53;;;30.19;nan
82293;BME280;71892;14.836;105.234;2023-10-31T10:08:50;99430.06;;;30.15;nan
82293;BME280;71892;14.836;105.234;2023-10-31T10:11:17;99422.28;;;30.09;nan
82293;BME280;71892;14.836;105.234;2023-10-31T10:13:44;99423.47;;;30.05;nan
82293;BME280;71892;14.836;105.234;2023-10-31T10:16:10;99422.38;;;29.95;nan
82293;BME280;71892;14.836;105.234;2023-10-31T10:18:37;99432.56;;;29.93;nan
82293;BME280;71892;14.836;105.234;2023-10-31T10:21:06;99444.03;;;29.85;nan
82293;BME280;71892;14.836;105.234;2023-10-31T10:23:33;99447.97;;;29.81;nan
82293;BME280;71892;14.836;105.234;2023-10-31T10:26:01;99451.03;;;29.76;nan
82293;BME280;71892;14.836;105.234;2023-10-31T10:28:28;99451.47;;;29.70;nan
82293;BME280;71892;14.836;105.234;2023-10-31T10:30:58;99453.53;;;29.67;nan
82293;BME280;71892;14.836;105.234;2023-10-31T10:33:25;99463.06;;;29.61;nan
82293;BME280;71892;14.836;105.234;2023-10-31T10:35:51;99429.94;;;29.64;nan
82293;BME280;71892;14.836;105.234;2023-10-31T10:38:19;99453.06;;;29.60;nan
82293;BME280;71892;14.836;105.234;2023-10-31T10:40:47;99461.03;;;29.51;nan
82293;BME280;71892;14.836;105.234;2023-10-31T10:43:25;99463.53;;;29.41;nan
82293;BME280;71892;14.836;105.234;2023-10-31T10:45:57;99471.75;;;29.27;nan
82293;BME280;71892;14.836;105.234;2023-10-31T10:48:28;99444.41;;;29.13;nan
82293;BME280;71892;14.836;105.234;2023-10-31T10:51:03;99474.28;;;28.89;nan
82293;BME280;71892;14.836;105.234;2023-10-31T10:53:59;99476.16;;;28.74;nan
82293;BME280;71892;14.836;105.234;2023-10-31T10:56:30;99474.06;;;28.49;nan
82293;BME280;71892;14.836;105.234;2023-10-31T10:59:03;99475.13;;;28.47;nan
82293;BME280;71892;14.836;105.234;2023-10-31T11:01:33;99485.28;;;28.31;nan
82293;BME280;71892;14.836;105.234;2023-10-31T11:04:02;99482.63;;;28.15;nan
82293;BME280;71892;14.836;105.234;2023-10-31T11:06:29;99475.72;;;28.08;nan
82293;BME280;71892;14.836;105.234;2023-10-31T11:08:56;99472.50;;;28.01;nan
82293;BME280;71892;14.836;105.234;2023-10-31T11:11:27;99497.47;;;27.95;nan
82293;BME280;71892;14.836;105.234;2023-10-31T11:13:55;99496.19;;;27.87;nan
82293;BME280;71892;14.836;105.234;2023-10-31T11:21:18;99514.19;;;27.59;nan
82293;BME280;71892;14.836;105.234;2023-10-31T11:23:57;99516.59;;;27.50;nan
82293;BME280;71892;14.836;105.234;2023-10-31T11:26:29;99518.88;;;27.42;nan
82293;BME280;71892;14.836;105.234;2023-10-31T11:29:05;99534.63;;;27.37;nan
82293;BME280;71892;14.836;105.234;2023-10-31T11:31:33;99534.91;;;27.32;nan
82293;BME280;71892;14.836;105.234;2023-10-31T11:34:02;99534.13;;;27.30;nan
82293;BME280;71892;14.836;105.234;2023-10-31T11:36:31;99546.69;;;27.33;nan
82293;BME280;71892;14.836;105.234;2023-10-31T11:41:48;99552.97;;;27.35;nan
82293;BME280;71892;14.836;105.234;2023-10-31T11:44:15;99556.03;;;27.29;nan
82293;BME280;71892;14.836;105.234;2023-10-31T11:46:42;99566.16;;;27.27;nan
82293;BME280;71892;14.836;105.234;2023-10-31T11:49:09;99563.00;;;27.18;nan
82293;BME280;71892;14.836;105.234;2023-10-31T11:51:35;99570.38;;;27.16;nan
82293;BME280;71892;14.836;105.234;2023-10-31T11:54:02;99569.59;;;27.14;nan
82293;BME280;71892;14.836;105.234;2023-10-31T11:56:28;99573.53;;;27.09;nan
82293;BME280;71892;14.836;105.234;2023-10-31T11:59:01;99569.03;;;27.08;nan
82293;BME280;71892;14.836;105.234;2023-10-31T12:01:28;99582.06;;;27.03;nan
82293;BME280;71892;14.836;105.234;2023-10-31T12:03:54;99584.03;;;27.01;nan
82293;BME280;71892;14.836;105.234;2023-10-31T12:06:20;99580.91;;;26.91;nan
82293;BME280;71892;14.836;105.234;2023-10-31T12:08:48;99585.56;;;26.89;nan
82293;BME280;71892;14.836;105.234;2023-10-31T12:11:18;99595.81;;;26.84;nan
82293;BME280;71892;14.836;105.234;2023-10-31T12:16:27;99602.34;;;26.81;nan
82293;BME280;71892;14.836;105.234;2023-10-31T12:24:12;99613.09;;;26.67;nan
82293;BME280;71892;14.836;105.234;2023-10-31T12:26:41;99618.78;;;26.63;nan
82293;BME280;71892;14.836;105.234;2023-10-31T12:29:17;99632.28;;;26.66;nan
82293;BME280;71892;14.836;105.234;2023-10-31T12:31:51;99634.34;;;26.61;nan
82293;BME280;71892;14.836;105.234;2023-10-31T12:34:21;99634.59;;;26.56;nan
82293;BME280;71892;14.836;105.234;2023-10-31T12:36:52;99650.00;;;26.57;nan
82293;BME280;71892;14.836;105.234;2023-10-31T12:39:22;99644.06;;;26.66;nan
82293;BME280;71892;14.836;105.234;2023-10-31T12:41:51;99649.66;;;26.63;nan
82293;BME280;71892;14.836;105.234;2023-10-31T12:44:23;99656.19;;;26.61;nan
82293;BME280;71892;14.836;105.234;2023-10-31T12:49:19;99667.66;;;26.67;nan
82293;BME280;71892;14.836;105.234;2023-10-31T12:52:03;99670.47;;;26.66;nan
82293;BME280;71892;14.836;105.234;2023-10-31T12:54:35;99675.91;;;26.66;nan
82293;BME280;71892;14.836;105.234;2023-10-31T12:57:03;99669.31;;;26.70;nan
82293;BME280;71892;14.836;105.234;2023-10-31T12:59:31;99666.91;;;26.64;nan
82293;BME280;71892;14.836;105.234;2023-10-31T13:01:58;99677.13;;;26.60;nan
82293;BME280;71892;14.836;105.234;2023-10-31T13:04:29;99666.44;;;26.56;nan
82293;BME280;71892;14.836;105.234;2023-10-31T13:07:03;99669.25;;;26.54;nan
82293;BME280;71892;14.836;105.234;2023-10-31T13:09:37;99666.50;;;26.54;nan
82293;BME280;71892;14.836;105.234;2023-10-31T13:12:09;99665.81;;;26.51;nan
82293;BME280;71892;14.836;105.234;2023-10-31T13:14:36;99671.09;;;26.54;nan
82293;BME280;71892;14.836;105.234;2023-10-31T13:19:30;99674.63;;;26.56;nan
82293;BME280;71892;14.836;105.234;2023-10-31T13:24:22;99665.31;;;26.60;nan
82293;BME280;71892;14.836;105.234;2023-10-31T13:26:49;99673.81;;;26.54;nan